Time;durP1;ratioP1;P1;durP2;ratioP2;P2;SDS_P1;SDS_P2;PMS_P1;PMS_P2;Temp;Humidity;BMP_temperature;BMP_pressure;BME280_temperature;BME280_humidity;BME280_pressure;Samples;Min_cycle;Max_cycle;Signal;HPM_P1;HPM_P2
2022/04/20 19:23:35;;;;;;;3.17;2.08;;;11.40;95.50;;;;;;5749297;23;20433;-84
2022/04/20 19:26:00;;;;;;;3.73;2.10;;;11.40;95.40;;;;;;4955407;28;20426;-83
2022/04/20 19:28:26;;;;;;;3.20;2.07;;;11.30;95.50;;;;;;4972614;28;20391;-83
2022/04/20 19:30:54;;;;;;;4.13;2.05;;;11.30;95.60;;;;;;4972411;28;20375;-83
2022/04/20 19:33:19;;;;;;;6.00;3.30;;;11.30;95.70;;;;;;4954181;28;20745;-83
2022/04/20 19:35:45;;;;;;;2.70;1.83;;;11.30;95.90;;;;;;4959517;28;20895;-82
2022/04/20 19:38:11;;;;;;;3.60;2.03;;;11.30;95.80;;;;;;4971523;28;20379;-81
2022/04/20 19:40:37;;;;;;;7.03;2.65;;;11.20;96.00;;;;;;4971257;28;20395;-82
2022/04/20 19:43:07;;;;;;;6.33;2.10;;;11.20;96.30;;;;;;4938700;28;20752;-81
2022/04/20 19:45:33;;;;;;;4.85;2.20;;;11.10;96.00;;;;;;4954394;28;20422;-81
2022/04/20 19:48:00;;;;;;;4.87;2.17;;;11.10;96.20;;;;;;4962796;28;20422;-82
2022/04/20 19:50:30;;;;;;;3.80;2.03;;;11.10;96.20;;;;;;4953270;28;20393;-82
2022/04/20 19:52:57;;;;;;;3.70;1.80;;;11.00;96.20;;;;;;4952969;28;20393;-82
2022/04/20 19:55:24;;;;;;;3.40;1.90;;;11.00;96.50;;;;;;4963576;28;20417;-82
2022/04/20 19:57:53;;;;;;;5.22;2.20;;;10.90;96.40;;;;;;4946424;28;20422;-81
2022/04/20 20:00:18;;;;;;;7.50;2.35;;;10.80;96.80;;;;;;4960913;28;20402;-82
2022/04/20 20:02:45;;;;;;;4.47;2.33;;;10.80;96.90;;;;;;4966811;28;20379;-82
2022/04/20 20:05:11;;;;;;;3.28;1.90;;;10.70;96.70;;;;;;4966982;28;21551;-82
2022/04/20 20:07:37;;;;;;;4.38;2.55;;;10.70;97.10;;;;;;4950971;28;20482;-81
2022/04/20 20:10:03;;;;;;;3.20;2.03;;;10.70;97.00;;;;;;4966628;28;20423;-81
2022/04/20 20:12:28;;;;;;;3.83;2.20;;;10.70;97.10;;;;;;4952844;28;20417;-82
2022/04/20 20:14:55;;;;;;;4.65;2.50;;;10.50;97.70;;;;;;4969533;28;20513;-81
2022/04/20 20:17:23;;;;;;;5.22;2.33;;;10.50;97.60;;;;;;4970273;28;20383;-82
2022/04/20 20:19:49;;;;;;;3.63;2.47;;;10.40;97.80;;;;;;4953251;28;20386;-82
2022/04/20 20:22:15;;;;;;;3.92;2.20;;;10.40;98.10;;;;;;4967109;28;20398;-83
2022/04/20 20:30:09;;;;;;;5.00;2.50;;;10.30;98.80;;;;;;4968074;28;20417;-82
2022/04/20 20:32:36;;;;;;;4.95;2.50;;;10.30;98.70;;;;;;4950922;28;20409;-83
2022/04/20 20:35:04;;;;;;;4.95;2.45;;;10.20;99.00;;;;;;4969237;28;20453;-82
2022/04/20 20:37:30;;;;;;;4.00;2.30;;;10.30;99.20;;;;;;4971984;28;20789;-83
2022/04/20 20:39:55;;;;;;;5.77;2.67;;;10.10;99.60;;;;;;4965295;28;20457;-83
2022/04/20 20:42:22;;;;;;;6.87;2.80;;;10.10;99.70;;;;;;4966216;28;20422;-83
2022/04/20 20:44:48;;;;;;;4.63;2.88;;;10.00;99.70;;;;;;4966866;28;20402;-83
2022/04/20 20:47:14;;;;;;;4.97;2.70;;;10.10;99.90;;;;;;4958588;28;20406;-84
2022/04/20 20:52:26;;;;;;;4.32;2.80;;;9.90;99.90;;;;;;4969508;28;20394;-84
2022/04/20 20:54:51;;;;;;;4.43;2.67;;;9.90;99.90;;;;;;4969270;28;20889;-83
2022/04/20 20:57:17;;;;;;;4.68;2.50;;;9.80;99.90;;;;;;4973046;28;20378;-83
2022/04/20 20:59:43;;;;;;;6.03;2.90;;;9.80;99.90;;;;;;4974201;28;20390;-83
2022/04/20 21:02:09;;;;;;;5.37;2.60;;;9.80;99.90;;;;;;4973520;28;20445;-84
2022/04/20 21:04:35;;;;;;;5.50;2.63;;;9.70;99.90;;;;;;4973179;28;20481;-83
2022/04/20 21:07:01;;;;;;;6.45;2.97;;;9.60;99.90;;;;;;4968510;28;20633;-83
2022/04/20 21:09:27;;;;;;;5.90;2.70;;;9.60;99.90;;;;;;4961002;28;20481;-84
2022/04/20 21:11:53;;;;;;;5.17;3.00;;;9.70;99.90;;;;;;4971071;28;20523;-84
2022/04/20 21:14:18;;;;;;;6.18;2.97;;;9.60;99.90;;;;;;4973033;28;20457;-83
2022/04/20 21:16:44;;;;;;;5.00;2.90;;;9.50;99.90;;;;;;4970107;28;20387;-84
2022/04/20 21:19:10;;;;;;;6.30;3.00;;;9.40;99.90;;;;;;4970092;28;20393;-84
2022/04/20 21:21:42;;;;;;;5.07;3.10;;;9.50;99.90;;;;;;4972010;28;20387;-84
2022/04/20 21:24:08;;;;;;;6.28;2.80;;;9.50;99.90;;;;;;4959357;28;20406;-83
2022/04/20 21:26:36;;;;;;;4.25;2.60;;;9.60;99.90;;;;;;4970122;28;20451;-83
2022/04/20 21:29:03;;;;;;;3.80;3.00;;;9.50;99.90;;;;;;4968970;28;20394;-83
2022/04/20 21:31:29;;;;;;;4.97;2.70;;;9.40;99.90;;;;;;4961797;28;20458;-83
2022/04/20 21:33:54;;;;;;;4.57;2.45;;;9.40;99.90;;;;;;4971879;28;21098;-83
2022/04/20 21:36:21;;;;;;;4.90;2.63;;;9.40;99.90;;;;;;4967238;28;20407;-83
2022/04/20 21:38:47;;;;;;;4.25;2.85;;;9.30;99.90;;;;;;4971999;28;20460;-83
2022/04/20 21:41:14;;;;;;;4.20;2.58;;;9.30;99.90;;;;;;4961039;28;20821;-83
2022/04/20 21:43:39;;;;;;;6.65;2.95;;;9.40;99.90;;;;;;4971155;28;20410;-84
2022/04/20 21:46:06;;;;;;;6.63;2.97;;;9.50;99.90;;;;;;4972302;28;20448;-83
2022/04/20 21:48:31;;;;;;;6.18;3.00;;;9.60;99.90;;;;;;4956752;28;20423;-83
2022/04/20 21:50:57;;;;;;;7.07;3.20;;;9.50;99.90;;;;;;4969860;28;20432;-83
2022/04/20 21:53:23;;;;;;;7.40;3.20;;;9.60;99.90;;;;;;4972036;28;20379;-83
2022/04/20 21:55:49;;;;;;;5.07;3.37;;;9.50;99.90;;;;;;4961369;28;20407;-84
2022/04/20 21:58:20;;;;;;;5.43;3.10;;;9.50;99.90;;;;;;4970334;28;20433;-83
2022/04/20 22:00:52;;;;;;;5.00;3.17;;;9.40;99.90;;;;;;4972331;28;20387;-82
2022/04/20 22:09:04;;;;;;;7.38;3.50;;;9.20;99.90;;;;;;4969549;28;20410;-83
2022/04/20 22:14:17;;;;;;;5.25;3.20;;;9.30;99.90;;;;;;4970092;28;20840;-83
2022/04/20 22:16:43;;;;;;;5.90;3.50;;;9.20;99.90;;;;;;4971791;28;20434;-84
2022/04/20 22:19:09;;;;;;;6.75;3.58;;;9.20;99.90;;;;;;4956244;28;20408;-84
2022/04/20 22:21:36;;;;;;;8.25;3.83;;;9.30;99.90;;;;;;4971321;28;20383;-84
2022/04/20 22:24:02;;;;;;;7.32;4.00;;;9.20;99.90;;;;;;4959390;28;20394;-83
2022/04/20 22:26:28;;;;;;;6.15;3.40;;;9.20;99.90;;;;;;4971336;28;20403;-84
2022/04/20 22:28:53;;;;;;;8.85;4.25;;;9.10;99.90;;;;;;4957366;28;20404;-83
2022/04/20 22:31:19;;;;;;;8.67;3.83;;;9.10;99.90;;;;;;4954508;28;20409;-83
2022/04/20 22:33:45;;;;;;;8.10;4.20;;;9.00;99.90;;;;;;4971092;28;20390;-83
2022/04/20 22:36:11;;;;;;;7.50;4.00;;;9.00;99.90;;;;;;4971010;28;20974;-83
2022/04/20 22:38:36;;;;;;;7.53;4.18;;;9.00;99.90;;;;;;4970726;28;20840;-83
2022/04/20 22:41:06;;;;;;;6.60;4.05;;;9.00;99.90;;;;;;4966860;28;20406;-82
2022/04/20 22:43:36;;;;;;;7.55;4.60;;;9.00;99.90;;;;;;4970326;28;20438;-83
2022/04/20 22:46:04;;;;;;;8.50;4.93;;;8.90;99.90;;;;;;4957076;28;20893;-83
2022/04/20 22:48:31;;;;;;;8.88;5.03;;;8.80;99.90;;;;;;4970199;28;20550;-83
2022/04/20 22:50:58;;;;;;;6.88;4.38;;;8.80;99.90;;;;;;4956053;28;20396;-83
2022/04/20 22:53:26;;;;;;;8.00;4.20;;;8.70;99.90;;;;;;4970037;28;20434;-83
2022/04/20 22:55:52;;;;;;;8.02;4.88;;;8.70;99.90;;;;;;4966313;28;20420;-83
2022/04/20 22:58:19;;;;;;;8.73;4.57;;;8.60;99.90;;;;;;4969932;28;20383;-82
2022/04/20 23:00:44;;;;;;;9.73;4.87;;;8.70;99.90;;;;;;4960637;28;20390;-83
2022/04/20 23:03:10;;;;;;;8.47;4.97;;;8.60;99.90;;;;;;4970084;28;20726;-83
2022/04/20 23:05:37;;;;;;;10.00;5.00;;;8.70;99.90;;;;;;4968217;28;20539;-83
2022/04/20 23:08:03;;;;;;;8.48;5.05;;;8.70;99.90;;;;;;4956947;28;20398;-83
2022/04/20 23:10:28;;;;;;;9.05;5.22;;;8.70;99.90;;;;;;4967323;28;20379;-83
2022/04/20 23:12:54;;;;;;;10.02;4.80;;;8.60;99.90;;;;;;4970051;28;20433;-83
2022/04/20 23:15:20;;;;;;;9.93;5.40;;;8.60;99.90;;;;;;4967248;28;20422;-83
2022/04/20 23:17:45;;;;;;;8.37;4.97;;;8.50;99.90;;;;;;4953534;28;20403;-83
2022/04/20 23:20:11;;;;;;;8.68;5.13;;;8.70;99.90;;;;;;4968025;28;20398;-83
2022/04/20 23:22:37;;;;;;;11.05;5.57;;;8.70;99.90;;;;;;4968895;28;20900;-82
2022/04/20 23:30:33;;;;;;;9.25;5.65;;;8.70;99.90;;;;;;4967950;28;20389;-82
2022/04/20 23:32:59;;;;;;;10.97;5.17;;;8.60;99.90;;;;;;4966522;28;20386;-83
2022/04/20 23:35:25;;;;;;;8.88;5.60;;;8.50;99.90;;;;;;4969456;28;20847;-83
2022/04/20 23:37:50;;;;;;;8.38;4.93;;;8.50;99.90;;;;;;4948324;28;20902;-82
2022/04/20 23:40:16;;;;;;;10.10;5.37;;;8.40;99.90;;;;;;4952540;28;20877;-83
2022/04/20 23:42:41;;;;;;;10.03;5.57;;;8.30;99.90;;;;;;4967388;28;20881;-83
2022/04/20 23:45:08;;;;;;;8.23;5.28;;;8.40;99.90;;;;;;4952647;28;20402;-83
2022/04/20 23:47:34;;;;;;;10.77;5.20;;;8.40;99.90;;;;;;4970511;28;20474;-83
2022/04/20 23:52:45;;;;;;;10.05;5.68;;;8.30;99.90;;;;;;4969462;28;20446;-82
2022/04/20 23:55:10;;;;;;;9.10;5.33;;;8.30;99.90;;;;;;4965068;28;20402;-82
2022/04/20 23:57:36;;;;;;;9.32;5.20;;;8.30;99.90;;;;;;4957847;28;20405;-83
